Time;durP1;ratioP1;P1;durP2;ratioP2;P2;SDS_P1;SDS_P2;PMS_P1;PMS_P2;Temp;Humidity;BMP_temperature;BMP_pressure;BME280_temperature;BME280_humidity;BME280_pressure;Samples;Min_cycle;Max_cycle;Signal;HPM_P1;HPM_P2
2022/01/27 00:05:20;;;;;;;;;60.25;44.00;;;;;5.77;75.79;103148.13;4978472;28;45668;-69
2022/01/27 00:08:25;;;;;;;;;51.25;41.00;;;;;5.67;75.79;103123.63;4970685;28;46176;-69
2022/01/27 00:10:54;;;;;;;;;54.75;41.25;;;;;5.70;75.35;103114.97;4974358;28;45952;-69
2022/01/27 00:13:28;;;;;;;;;53.25;37.25;;;;;5.76;75.15;103120.28;4970658;28;45419;-69
2022/01/27 00:16:00;;;;;;;;;52.25;39.00;;;;;5.73;75.19;103118.47;4969842;28;45714;-69
2022/01/27 00:18:29;;;;;;;;;46.00;39.00;;;;;5.73;75.21;103118.47;4968797;28;46233;-69
2022/01/27 00:20:55;;;;;;;;;60.25;42.25;;;;;5.73;74.92;103115.88;4972150;28;45617;-68
2022/01/27 00:23:20;;;;;;;;;49.25;40.00;;;;;5.73;75.17;103117.59;4970055;28;45523;-69
2022/01/27 00:25:45;;;;;;;;;50.00;42.25;;;;;5.73;75.33;103109.78;4962779;28;45502;-69
2022/01/27 00:28:11;;;;;;;;;54.50;43.25;;;;;5.75;75.19;103108.97;4972593;28;46371;-69
2022/01/27 00:30:37;;;;;;;;;54.00;40.25;;;;;5.75;75.39;103113.31;4973267;28;45380;-69
2022/01/27 00:33:03;;;;;;;;;56.25;41.25;;;;;5.74;75.34;103107.22;4973543;28;45501;-69
2022/01/27 00:35:30;;;;;;;;;56.50;42.25;;;;;5.76;75.50;103120.28;4978832;28;45472;-69
2022/01/27 00:37:55;;;;;;;;;58.50;40.00;;;;;5.73;75.14;103107.19;5051736;28;46689;-69
2022/01/27 00:40:21;;;;;;;;;54.25;43.50;;;;;5.78;75.33;103113.34;5052845;28;45317;-69
2022/01/27 00:42:47;;;;;;;;;45.75;39.25;;;;;5.78;75.13;103102.91;5053564;28;45387;-69
2022/01/27 00:45:13;;;;;;;;;66.25;43.50;;;;;5.65;74.82;103081.00;5052403;28;45325;-69
2022/01/27 00:47:38;;;;;;;;;53.50;40.25;;;;;5.79;74.85;103102.03;5051998;28;47192;-69
2022/01/27 00:50:04;;;;;;;;;47.25;32.50;;;;;5.75;75.28;103095.06;5051643;28;45405;-69
2022/01/27 00:52:43;;;;;;;;;58.50;41.50;;;;;5.76;75.33;103099.41;5051793;28;45386;-69
2022/01/27 00:55:10;;;;;;;;;48.75;41.25;;;;;5.75;75.26;103076.78;5053436;28;45342;-69
2022/01/27 01:00:32;;;;;;;;;64.50;41.75;;;;;5.70;75.30;103081.94;5053085;28;45728;-69
2022/01/27 01:03:12;;;;;;;;;45.75;38.75;;;;;5.68;75.73;103065.34;5056064;28;45291;-69
2022/01/27 01:06:04;;;;;;;;;59.75;41.75;;;;;5.70;75.59;103071.50;5055460;28;45694;-69
2022/01/27 01:16:03;;;;;;;;;53.00;40.75;;;;;5.63;75.04;103067.03;5041413;28;45387;-69
2022/01/27 01:18:45;;;;;;;;;48.50;40.75;;;;;5.62;75.33;103069.63;5054327;28;47058;-69
2022/01/27 01:29:28;;;;;;;;;56.00;40.75;;;;;5.47;75.85;103052.88;5058455;28;45331;-69
2022/01/27 01:32:11;;;;;;;;;60.75;42.50;;;;;5.43;75.53;103055.44;5059734;28;45359;-69
2022/01/27 01:34:43;;;;;;;;;59.75;42.75;;;;;5.35;75.82;103057.91;5047526;28;45517;-69
2022/01/27 01:37:09;;;;;;;;;67.25;47.00;;;;;5.34;76.16;103050.06;5043519;28;45403;-69
2022/01/27 01:39:36;;;;;;;;;57.50;45.75;;;;;5.34;76.58;103050.06;5057062;28;46204;-69
2022/01/27 01:42:06;;;;;;;;;59.50;45.00;;;;;5.35;76.85;103055.31;5060076;28;45897;-69
2022/01/27 01:44:32;;;;;;;;;60.50;44.50;;;;;5.31;76.52;103048.28;5058483;28;45402;-69
2022/01/27 01:46:57;;;;;;;;;50.25;40.50;;;;;5.27;76.37;103041.25;5056678;28;45616;-69
2022/01/27 01:49:26;;;;;;;;;68.25;44.25;;;;;5.25;76.83;103035.16;5057576;28;46639;-69
2022/01/27 01:51:52;;;;;;;;;50.25;41.50;;;;;5.17;76.75;103048.06;5058528;28;45347;-69
2022/01/27 01:54:18;;;;;;;;;57.00;44.00;;;;;5.12;77.04;103052.34;5057847;28;45378;-69
2022/01/27 01:56:43;;;;;;;;;61.25;46.00;;;;;5.13;77.03;103051.47;5058484;28;45419;-69
2022/01/27 01:59:09;;;;;;;;;57.50;42.00;;;;;5.13;77.16;103053.22;5057442;28;46364;-69
2022/01/27 02:01:36;;;;;;;;;61.50;44.75;;;;;5.11;77.70;103060.97;5058532;28;45391;-69
2022/01/27 02:04:06;;;;;;;;;57.25;38.50;;;;;5.11;77.63;103039.25;5046886;28;45344;-69
2022/01/27 02:06:37;;;;;;;;;61.75;45.25;;;;;5.11;77.53;103045.34;5057708;28;45492;-69
2022/01/27 02:09:13;;;;;;;;;61.25;43.00;;;;;5.10;77.38;103045.31;5056641;28;46641;-69
2022/01/27 02:19:53;;;;;;;;;51.50;39.50;;;;;4.88;77.98;103044.97;5056978;28;45520;-69
2022/01/27 02:22:20;;;;;;;;;60.75;40.75;;;;;4.88;78.38;103036.28;5057688;28;45363;-69
2022/01/27 02:24:46;;;;;;;;;56.50;45.25;;;;;4.84;78.08;103024.03;5057623;28;45473;-69
2022/01/27 02:27:14;;;;;;;;;52.75;41.25;;;;;4.78;78.45;103017.00;5057497;27;45579;-69
2022/01/27 02:29:40;;;;;;;;;44.75;35.50;;;;;4.72;78.37;103019.50;5057825;28;46548;-69
2022/01/27 02:32:06;;;;;;;;;65.50;44.75;;;;;4.73;78.69;103021.25;5057660;28;45570;-69
2022/01/27 02:34:32;;;;;;;;;47.75;41.25;;;;;4.71;78.78;103018.63;5055662;28;45364;-69
2022/01/27 02:36:57;;;;;;;;;62.50;42.00;;;;;4.71;78.75;103018.63;5056189;28;45573;-69
2022/01/27 02:39:23;;;;;;;;;55.75;43.50;;;;;4.71;78.45;103012.53;5056738;28;45378;-69
2022/01/27 02:41:48;;;;;;;;;59.25;44.50;;;;;4.70;78.94;103013.41;5057577;28;45361;-69
2022/01/27 02:44:51;;;;;;;;;61.00;45.00;;;;;4.70;78.86;103009.06;5057784;28;45339;-69
2022/01/27 02:47:17;;;;;;;;;51.00;32.50;;;;;4.70;78.65;103009.06;5011127;28;45426;-69
2022/01/27 02:49:43;;;;;;;;;61.00;45.50;;;;;4.67;79.23;103000.31;5009938;28;47268;-69
2022/01/27 02:52:10;;;;;;;;;59.00;41.25;;;;;4.70;79.45;102998.63;5014215;28;45791;-69
2022/01/27 02:54:36;;;;;;;;;56.75;45.00;;;;;4.74;79.02;103006.50;5010677;28;45587;-69
2022/01/27 02:57:02;;;;;;;;;50.75;41.25;;;;;4.71;79.24;102994.31;5016985;28;45524;-69
2022/01/27 02:59:27;;;;;;;;;54.00;39.25;;;;;4.70;78.86;102996.03;5010763;28;47690;-69
2022/01/27 03:01:53;;;;;;;;;58.67;40.33;;;;;4.72;78.92;102999.53;5017645;28;52999;-69
2022/01/27 03:04:20;;;;;;;;;56.50;42.00;;;;;4.72;78.95;103001.25;4998584;28;45437;-69
2022/01/27 03:06:46;;;;;;;;;44.75;35.00;;;;;4.76;79.40;102999.59;5014603;28;45559;-69
2022/01/27 03:09:13;;;;;;;;;55.75;44.00;;;;;4.72;79.06;102996.06;5009877;28;46383;-69
2022/01/27 03:11:51;;;;;;;;;42.50;32.75;;;;;4.69;78.84;102994.25;5010575;28;45912;-69
2022/01/27 03:14:20;;;;;;;;;57.50;42.00;;;;;4.66;79.36;102990.75;5010395;28;45420;-69
2022/01/27 03:16:47;;;;;;;;;54.25;41.50;;;;;4.65;79.28;102997.69;5010990;28;45512;-69
2022/01/27 03:19:12;;;;;;;;;42.50;31.00;;;;;4.64;79.52;102984.59;5013747;28;46152;-69
2022/01/27 03:21:38;;;;;;;;;61.00;42.00;;;;;4.63;79.42;102988.94;5011910;28;45608;-69
2022/01/27 03:24:03;;;;;;;;;48.50;41.00;;;;;4.62;79.22;102989.81;5028903;28;45611;-69
2022/01/27 03:26:29;;;;;;;;;57.50;39.75;;;;;4.59;79.25;102988.84;5052945;28;45418;-69
2022/01/27 03:28:55;;;;;;;;;67.25;43.25;;;;;4.62;79.47;102983.72;5056877;28;46089;-69
2022/01/27 03:31:21;;;;;;;;;45.75;35.50;;;;;4.62;79.32;102991.53;5056956;28;45363;-69
2022/01/27 03:33:46;;;;;;;;;54.50;38.00;;;;;4.63;79.71;102985.47;5056931;28;45399;-69
2022/01/27 03:36:12;;;;;;;;;52.00;39.00;;;;;4.64;79.34;102993.28;5056333;28;45401;-69
2022/01/27 03:38:38;;;;;;;;;48.75;30.00;;;;;4.66;79.51;102989.00;5056135;28;46792;-69
2022/01/27 03:41:06;;;;;;;;;51.75;39.75;;;;;4.63;79.64;102977.66;5052190;28;45241;-69
2022/01/27 03:43:32;;;;;;;;;44.75;36.75;;;;;4.69;79.42;102986.44;5057056;28;45570;-69
2022/01/27 03:45:59;;;;;;;;;56.00;41.00;;;;;4.66;79.26;102994.22;5057256;28;45629;-69
2022/01/27 03:48:24;;;;;;;;;60.00;42.25;;;;;4.66;79.76;102986.41;5055117;28;45405;-69
2022/01/27 03:50:50;;;;;;;;;54.50;36.50;;;;;4.65;79.88;102981.19;5056382;28;45381;-69
2022/01/27 03:53:15;;;;;;;;;53.25;40.25;;;;;4.68;79.13;102991.63;5055312;28;45320;-69
2022/01/27 03:55:41;;;;;;;;;46.33;36.33;;;;;4.66;79.69;102988.13;5056729;28;45683;-69
2022/01/27 03:58:07;;;;;;;;;52.00;41.00;;;;;4.63;79.47;102980.25;5049153;28;45522;-69
2022/01/27 04:00:32;;;;;;;;;48.75;40.00;;;;;4.65;79.78;102983.78;5054918;28;45394;-69
2022/01/27 04:03:09;;;;;;;;;43.50;33.75;;;;;4.66;79.41;102982.94;5056790;28;45545;-69
2022/01/27 04:05:39;;;;;;;;;42.75;29.75;;;;;4.66;79.24;102978.59;5056240;28;45560;-69
2022/01/27 04:08:08;;;;;;;;;41.50;33.00;;;;;4.68;79.63;102991.63;5056123;28;46271;-69
2022/01/27 04:10:34;;;;;;;;;56.00;41.75;;;;;4.67;79.70;102990.75;5046214;28;45440;-69
2022/01/27 04:13:00;;;;;;;;;47.50;36.25;;;;;4.70;79.09;102995.16;5056159;28;45318;-69
2022/01/27 04:15:25;;;;;;;;;41.50;29.25;;;;;4.67;79.27;102989.88;5055918;27;45566;-69
2022/01/27 04:17:51;;;;;;;;;42.25;34.75;;;;;4.61;79.23;102979.38;5055168;28;46342;-69
2022/01/27 04:20:18;;;;;;;;;47.25;40.75;;;;;4.61;79.39;102988.06;5055502;28;45449;-69
2022/01/27 04:22:43;;;;;;;;;48.75;38.00;;;;;4.56;79.45;102976.69;5054941;28;45529;-69
2022/01/27 04:25:09;;;;;;;;;45.75;32.50;;;;;4.58;79.79;102994.94;5057704;28;45506;-69
2022/01/27 04:27:38;;;;;;;;;38.00;33.25;;;;;4.55;79.59;102979.25;5054711;28;46533;-69
2022/01/27 04:30:07;;;;;;;;;58.25;41.50;;;;;4.52;79.51;102985.28;5055609;28;45308;-69
2022/01/27 04:32:40;;;;;;;;;43.75;33.75;;;;;4.52;79.56;102992.22;5054202;28;45790;-69
2022/01/27 04:35:07;;;;;;;;;46.00;36.75;;;;;4.51;80.04;102980.91;5053650;28;45571;-69
2022/01/27 04:37:38;;;;;;;;;45.50;36.50;;;;;4.54;79.93;102982.69;5055289;28;46630;-69
2022/01/27 04:40:14;;;;;;;;;36.75;31.50;;;;;4.51;79.80;102986.13;5039837;28;45309;-70
2022/01/27 04:42:54;;;;;;;;;44.75;35.00;;;;;4.47;79.86;102980.84;5051917;28;45363;-69
2022/01/27 04:45:24;;;;;;;;;43.25;37.00;;;;;4.50;80.24;102991.31;5055168;28;45302;-69
2022/01/27 04:47:54;;;;;;;;;63.00;37.25;;;;;4.50;80.15;102992.19;5053521;28;47439;-69
2022/01/27 04:50:19;;;;;;;;;39.00;34.75;;;;;4.49;80.16;102994.75;5054476;28;45368;-69
2022/01/27 04:52:47;;;;;;;;;37.50;30.00;;;;;4.48;80.18;102990.41;5055095;28;45409;-69
2022/01/27 04:55:14;;;;;;;;;35.00;26.00;;;;;4.47;80.23;102981.72;5071174;27;45510;-69
2022/01/27 04:57:43;;;;;;;;;49.75;34.75;;;;;4.49;79.92;102976.53;5054638;28;47508;-69
2022/01/27 05:00:11;;;;;;;;;43.50;33.50;;;;;4.47;79.87;102978.22;5054160;28;45510;-69
2022/01/27 05:02:51;;;;;;;;;43.25;34.00;;;;;4.48;79.88;102985.19;5054001;28;45507;-69
2022/01/27 05:05:16;;;;;;;;;46.00;31.75;;;;;4.47;79.77;102980.84;5051597;28;45416;-69
2022/01/27 05:07:41;;;;;;;;;41.00;36.67;;;;;4.43;80.19;102983.38;5047931;28;57928;-69
2022/01/27 05:10:13;;;;;;;;;33.75;27.50;;;;;4.40;79.78;102970.31;5038369;28;54866;-69
2022/01/27 05:12:45;;;;;;;;;37.00;32.50;;;;;4.39;79.55;102970.28;5053462;28;45400;-69
2022/01/27 05:15:10;;;;;;;;;46.25;37.50;;;;;4.40;80.28;102972.03;5053357;28;45534;-69
2022/01/27 05:17:36;;;;;;;;;38.25;28.00;;;;;4.39;79.79;102972.91;5051330;28;46012;-69
2022/01/27 05:20:01;;;;;;;;;47.75;34.75;;;;;4.39;80.30;102972.91;5051210;28;45390;-69
2022/01/27 05:22:27;;;;;;;;;44.25;31.25;;;;;4.40;80.24;102966.84;5051284;28;45437;-69
2022/01/27 05:24:52;;;;;;;;;39.75;32.25;;;;;4.40;80.33;102967.72;5052313;28;45439;-69
2022/01/27 05:27:18;;;;;;;;;35.67;34.00;;;;;4.40;79.84;102965.09;5051357;28;46734;-69
2022/01/27 05:29:43;;;;;;;;;40.75;31.75;;;;;4.39;80.02;102959.88;5052739;28;45490;-69
2022/01/27 05:32:08;;;;;;;;;37.00;32.50;;;;;4.42;79.99;102978.16;5051904;28;45410;-69
2022/01/27 05:34:34;;;;;;;;;48.50;30.75;;;;;4.41;80.16;102969.47;5051467;28;45446;-69
2022/01/27 05:36:59;;;;;;;;;38.25;28.50;;;;;4.44;80.11;102971.25;5051678;28;46118;-69
2022/01/27 05:39:25;;;;;;;;;52.00;34.00;;;;;4.40;80.37;102967.72;5053117;28;50504;-69
2022/01/27 05:41:50;;;;;;;;;46.50;29.00;;;;;4.48;80.08;102967.84;5065885;28;45369;-69
2022/01/27 05:44:15;;;;;;;;;30.00;21.75;;;;;4.49;79.96;102964.41;5050448;28;45612;-70
2022/01/27 05:46:40;;;;;;;;;33.00;28.75;;;;;4.50;79.76;102960.94;5050843;28;46253;-70
2022/01/27 05:49:06;;;;;;;;;37.50;33.50;;;;;4.53;79.60;102967.91;5050340;28;45454;-70
2022/01/27 05:51:31;;;;;;;;;43.00;33.25;;;;;4.51;80.25;102959.22;5039713;28;45353;-69
2022/01/27 05:53:57;;;;;;;;;37.50;35.00;;;;;4.52;80.08;102960.97;5066828;28;45489;-69
2022/01/27 05:56:22;;;;;;;;;46.75;29.75;;;;;4.48;79.63;102948.72;5050607;28;46308;-69
2022/01/27 05:58:47;;;;;;;;;42.50;33.75;;;;;4.47;80.07;102960.88;5050238;28;45466;-69
2022/01/27 06:01:13;;;;;;;;;35.00;27.00;;;;;4.45;80.14;102945.25;5050974;28;45777;-69
2022/01/27 06:03:39;;;;;;;;;46.75;30.50;;;;;4.51;80.28;102956.63;5053224;28;45364;-69
2022/01/27 06:06:04;;;;;;;;;42.75;32.00;;;;;4.51;80.15;102947.06;5051013;28;46184;-69
2022/01/27 06:08:30;;;;;;;;;54.00;35.25;;;;;4.55;79.90;102961.91;5050981;28;45481;-69
2022/01/27 06:10:58;;;;;;;;;38.75;31.75;;;;;4.51;79.87;102960.09;5051651;28;45269;-69
2022/01/27 06:13:24;;;;;;;;;34.75;28.00;;;;;4.53;80.29;102965.31;5055043;28;45560;-69
2022/01/27 06:15:49;;;;;;;;;49.75;34.25;;;;;4.53;80.33;102967.91;5054853;28;45431;-69
2022/01/27 06:18:14;;;;;;;;;46.00;31.25;;;;;4.53;80.27;102968.78;5056262;28;45398;-69
2022/01/27 06:20:42;;;;;;;;;41.75;30.50;;;;;4.57;80.22;102982.75;5054376;28;45461;-69
2022/01/27 06:23:08;;;;;;;;;40.00;32.50;;;;;4.59;80.33;102975.84;5052535;28;45529;-69
2022/01/27 06:25:33;;;;;;;;;48.00;31.75;;;;;4.63;79.82;102980.25;5054802;28;46401;-69
2022/01/27 06:27:59;;;;;;;;;38.75;34.75;;;;;4.64;79.79;102982.00;5053925;28;45566;-69
2022/01/27 06:30:24;;;;;;;;;37.50;28.50;;;;;4.52;79.65;102953.16;5055491;28;45636;-69
2022/01/27 06:32:49;;;;;;;;;43.50;35.50;;;;;4.65;79.96;102971.63;5058679;28;45618;-69
2022/01/27 06:35:15;;;;;;;;;48.00;32.00;;;;;4.67;79.62;102980.34;5057113;28;46381;-69
2022/01/27 06:37:42;;;;;;;;;21.25;18.25;;;;;4.69;79.92;102986.44;5057216;28;45453;-69
2022/01/27 06:40:10;;;;;;;;;48.25;37.75;;;;;4.71;80.03;102989.97;5059465;28;45443;-69
2022/01/27 06:42:36;;;;;;;;;54.75;36.00;;;;;4.71;79.91;102994.31;5056488;28;45517;-69
2022/01/27 06:45:06;;;;;;;;;37.25;27.75;;;;;4.74;79.69;102994.34;5059096;28;45687;-69
2022/01/27 06:47:31;;;;;;;;;44.00;35.75;;;;;4.70;79.90;102989.94;5057643;28;45814;-69
2022/01/27 06:49:56;;;;;;;;;43.75;30.25;;;;;4.69;79.85;102994.25;5057828;28;45321;-69
2022/01/27 06:52:24;;;;;;;;;51.25;33.25;;;;;4.69;79.98;102985.56;5057897;28;45388;-69
2022/01/27 06:54:50;;;;;;;;;38.25;31.50;;;;;4.64;79.94;102982.00;5057561;28;45532;-69
2022/01/27 06:57:16;;;;;;;;;44.25;33.00;;;;;4.62;79.86;102981.13;5054500;28;45994;-69
2022/01/27 06:59:41;;;;;;;;;44.25;30.00;;;;;4.64;79.51;102988.09;5056874;28;45656;-69
2022/01/27 07:02:07;;;;;;;;;45.00;31.00;;;;;4.56;79.94;102984.50;5057401;28;45516;-69
2022/01/27 07:04:32;;;;;;;;;49.67;36.67;;;;;4.57;79.80;102994.06;5058084;28;52328;-69
2022/01/27 07:06:57;;;;;;;;;42.00;34.75;;;;;4.62;79.99;102996.75;5057387;28;45376;-69
2022/01/27 07:09:23;;;;;;;;;50.50;40.00;;;;;4.64;79.90;102998.50;5056815;28;45367;-69
2022/01/27 07:11:48;;;;;;;;;49.00;37.00;;;;;4.66;79.72;103002.03;5056900;28;45639;-69
2022/01/27 07:14:13;;;;;;;;;45.75;38.75;;;;;4.65;80.16;102989.88;5055828;28;46196;-70
2022/01/27 07:16:39;;;;;;;;;43.50;30.50;;;;;4.67;80.33;102995.09;5056179;28;45430;-70
2022/01/27 07:19:04;;;;;;;;;55.50;40.25;;;;;4.67;79.82;102995.09;5056711;28;45469;-70
2022/01/27 07:21:30;;;;;;;;;39.25;31.00;;;;;4.71;79.56;103002.13;5054682;28;45461;-68
2022/01/27 07:23:55;;;;;;;;;47.25;39.25;;;;;4.69;80.07;103009.00;5055533;28;46208;-69
2022/01/27 07:26:25;;;;;;;;;50.00;35.33;;;;;4.70;80.08;103001.25;5057180;28;52544;-70
2022/01/27 07:28:54;;;;;;;;;51.00;35.50;;;;;4.71;80.15;103003.00;5056250;28;45726;-69
2022/01/27 07:31:20;;;;;;;;;50.50;35.75;;;;;4.73;80.14;103005.63;5056553;28;45365;-70
2022/01/27 07:33:48;;;;;;;;;58.50;37.75;;;;;4.72;79.91;103004.75;5054350;28;46474;-69
2022/01/27 07:36:15;;;;;;;;;38.50;26.75;;;;;4.74;79.68;102999.53;5055847;27;45383;-69
2022/01/27 07:38:41;;;;;;;;;42.00;35.75;;;;;4.69;79.73;102996.84;5057002;28;45439;-69
2022/01/27 07:41:06;;;;;;;;;52.00;40.50;;;;;4.72;79.86;102999.53;5055775;28;45463;-69
2022/01/27 07:43:31;;;;;;;;;50.75;35.00;;;;;4.71;79.92;102997.78;5056690;28;46294;-69
2022/01/27 07:45:57;;;;;;;;;41.25;31.50;;;;;4.75;79.55;103000.41;5056379;28;45483;-69
2022/01/27 07:48:22;;;;;;;;;33.00;23.25;;;;;4.73;79.89;102997.81;5055171;28;45874;-69
2022/01/27 07:50:48;;;;;;;;;43.00;36.00;;;;;4.68;79.91;102991.63;5056648;28;47275;-69
2022/01/27 07:53:14;;;;;;;;;45.00;36.50;;;;;4.69;79.74;102999.47;5049985;28;46636;-69
2022/01/27 07:55:40;;;;;;;;;39.50;33.25;;;;;4.71;79.58;102992.56;5055752;28;47626;-69
2022/01/27 07:58:05;;;;;;;;;44.75;30.00;;;;;4.70;79.63;102995.16;5056541;28;45400;-69
2022/01/27 08:00:30;;;;;;;;;49.75;35.75;;;;;4.70;80.02;103001.25;5055119;28;45268;-69
2022/01/27 08:02:56;;;;;;;;;49.33;39.33;;;;;4.65;79.83;102989.00;5056501;28;45789;-69
2022/01/27 08:05:22;;;;;;;;;45.00;34.25;;;;;4.71;80.03;102999.50;5055926;28;45530;-69
2022/01/27 08:07:47;;;;;;;;;45.25;35.75;;;;;4.71;79.48;103003.00;5057729;28;45506;-69
2022/01/27 08:10:13;;;;;;;;;53.25;39.75;;;;;4.69;80.09;102999.47;5055546;28;45611;-69
2022/01/27 08:12:42;;;;;;;;;44.25;35.25;;;;;4.72;79.95;102999.53;5054741;28;45385;-69
2022/01/27 08:15:08;;;;;;;;;54.00;40.25;;;;;4.76;79.62;103002.19;5055575;28;45848;-69
2022/01/27 08:17:34;;;;;;;;;45.75;33.25;;;;;4.75;79.65;102996.13;5056322;28;45308;-69
2022/01/27 08:19:59;;;;;;;;;37.50;31.50;;;;;4.79;79.90;103010.06;5056108;28;45539;-69
2022/01/27 08:22:25;;;;;;;;;45.50;35.75;;;;;4.83;79.53;103004.06;5056468;28;46336;-69
2022/01/27 08:24:50;;;;;;;;;45.50;39.00;;;;;4.84;79.82;103011.88;5055400;28;45448;-69
2022/01/27 08:27:19;;;;;;;;;34.50;17.75;;;;;4.87;79.85;103013.69;5053497;28;45892;-69
2022/01/27 08:29:49;;;;;;;;;52.25;35.00;;;;;4.88;79.46;103015.44;5056317;28;45506;-70
2022/01/27 08:32:18;;;;;;;;;62.50;39.75;;;;;4.87;79.83;103014.56;5055199;28;45497;-69
2022/01/27 08:34:44;;;;;;;;;45.75;32.25;;;;;4.92;79.36;103012.91;5053309;28;45420;-69
2022/01/27 08:37:17;;;;;;;;;61.50;48.25;;;;;4.96;79.42;103014.72;5062027;28;45556;-70
2022/01/27 08:39:43;;;;;;;;;44.75;33.00;;;;;5.00;79.20;103020.84;5052720;28;45376;-70
2022/01/27 08:42:08;;;;;;;;;46.75;37.25;;;;;5.04;79.58;103016.56;5053246;28;45447;-70
2022/01/27 08:44:35;;;;;;;;;51.00;36.25;;;;;5.07;79.26;103008.81;5051715;28;45306;-69
2022/01/27 08:47:01;;;;;;;;;39.50;32.00;;;;;5.09;78.92;103005.34;5053355;28;46065;-69
2022/01/27 08:49:27;;;;;;;;;39.00;33.25;;;;;5.12;78.74;103015.84;5053186;28;45751;-69
2022/01/27 08:51:54;;;;;;;;;56.50;35.00;;;;;5.20;79.23;103021.16;5063806;28;46375;-70
2022/01/27 08:54:19;;;;;;;;;52.75;36.00;;;;;5.22;79.20;103017.75;5062754;28;46007;-69
2022/01/27 08:56:45;;;;;;;;;38.50;31.00;;;;;5.28;79.03;103009.16;5055452;27;45481;-69
2022/01/27 08:59:11;;;;;;;;;48.00;37.25;;;;;5.31;78.74;103010.91;5052738;28;45363;-69
2022/01/27 09:01:37;;;;;;;;;47.25;37.75;;;;;5.31;78.48;103006.56;5051818;28;47189;-69
2022/01/27 09:04:04;;;;;;;;;55.50;32.75;;;;;5.35;78.65;103003.16;5060457;28;45691;-69
2022/01/27 09:06:29;;;;;;;;;58.50;41.25;;;;;5.27;78.57;102983.91;5054853;28;45396;-69
2022/01/27 09:08:55;;;;;;;;;51.75;38.75;;;;;5.43;78.52;103009.38;5052283;28;45445;-69
2022/01/27 09:11:21;;;;;;;;;45.00;32.75;;;;;5.46;78.53;103001.56;5055564;28;47422;-69
2022/01/27 09:13:47;;;;;;;;;60.00;43.00;;;;;5.48;77.99;102997.28;5052752;28;45581;-69
2022/01/27 09:16:13;;;;;;;;;48.25;36.50;;;;;5.51;77.96;102988.59;5053121;28;45529;-69
2022/01/27 09:18:38;;;;;;;;;58.50;40.25;;;;;5.59;78.17;102988.72;5053804;28;45450;-69
2022/01/27 09:21:10;;;;;;;;;45.50;37.50;;;;;5.66;78.12;102987.94;5053748;28;47513;-69
2022/01/27 09:23:36;;;;;;;;;56.00;39.00;;;;;5.69;77.75;102982.75;5052079;28;45378;-69
2022/01/27 09:26:09;;;;;;;;;48.75;38.25;;;;;5.76;77.79;102995.91;5052454;28;45443;-68
2022/01/27 09:28:34;;;;;;;;;41.25;35.25;;;;;5.84;77.66;102982.94;5050622;28;45419;-69
2022/01/27 09:31:01;;;;;;;;;51.75;38.00;;;;;5.94;77.67;102984.84;5055732;28;45536;-69
2022/01/27 09:33:27;;;;;;;;;51.50;36.25;;;;;5.95;77.03;102980.50;5054519;28;45421;-69
2022/01/27 09:35:53;;;;;;;;;52.25;33.75;;;;;5.97;76.68;102981.41;5055230;28;45430;-69
2022/01/27 09:38:18;;;;;;;;;50.50;39.00;;;;;5.99;76.93;102979.69;5054762;28;45541;-69
2022/01/27 09:40:47;;;;;;;;;49.00;32.75;;;;;6.11;76.99;102992.91;5054937;28;46101;-69
2022/01/27 09:43:13;;;;;;;;;49.75;40.25;;;;;6.13;76.29;102979.88;5055413;28;45308;-69
2022/01/27 09:45:39;;;;;;;;;51.00;36.50;;;;;6.23;76.61;102982.59;5055694;28;45582;-69
2022/01/27 09:48:17;;;;;;;;;53.25;39.50;;;;;6.32;76.16;102984.44;5058267;28;45542;-69
2022/01/27 09:53:25;;;;;;;;;46.25;36.50;;;;;6.62;76.03;102968.16;5058254;28;46365;-69
2022/01/27 09:55:50;;;;;;;;;53.50;39.50;;;;;6.73;75.68;102970.88;5058982;28;45315;-69
2022/01/27 09:58:15;;;;;;;;;49.25;36.50;;;;;6.83;75.26;102975.31;5057991;28;45561;-69
2022/01/27 10:00:41;;;;;;;;;47.75;39.00;;;;;6.97;75.11;102973.72;5057385;28;45523;-69
2022/01/27 10:03:08;;;;;;;;;46.00;36.25;;;;;7.07;74.75;102967.69;5058778;28;45303;-69
2022/01/27 10:05:34;;;;;;;;;48.00;38.50;;;;;7.15;74.77;102961.63;5058103;28;45284;-69
2022/01/27 10:08:11;;;;;;;;;61.25;38.50;;;;;7.09;74.18;102959.84;5058239;28;45396;-69
2022/01/27 10:10:39;;;;;;;;;49.00;37.50;;;;;7.26;73.83;102971.31;5058224;28;47060;-69
2022/01/27 10:13:07;;;;;;;;;51.00;37.75;;;;;7.30;73.79;102972.19;5058235;28;45996;-69
2022/01/27 10:15:37;;;;;;;;;49.00;35.00;;;;;7.37;74.02;102971.38;5052695;28;45416;-69
2022/01/27 10:18:09;;;;;;;;;60.00;36.25;;;;;7.45;73.57;102977.50;5059934;28;45407;-69
2022/01/27 10:20:37;;;;;;;;;43.75;37.50;;;;;7.49;73.20;102975.81;5057424;28;46193;-69
2022/01/27 10:23:16;;;;;;;;;49.00;38.25;;;;;7.54;72.92;102977.56;5057957;28;45307;-69
2022/01/27 10:25:47;;;;;;;;;55.00;40.25;;;;;7.64;72.87;102977.63;5057861;28;45363;-69
2022/01/27 10:28:33;;;;;;;;;58.25;39.75;;;;;7.57;72.61;102951.44;5058616;28;45476;-69
2022/01/27 10:31:04;;;;;;;;;50.50;38.50;;;;;7.79;72.34;102983.81;5058073;28;45454;-69
2022/01/27 10:33:44;;;;;;;;;55.25;40.25;;;;;7.79;72.32;102982.94;5056646;28;45509;-70
2022/01/27 10:36:26;;;;;;;;;56.75;40.25;;;;;7.85;72.53;102982.97;5058314;28;45547;-69
2022/01/27 10:38:53;;;;;;;;;54.00;40.75;;;;;7.93;72.55;102981.22;5057693;28;45745;-69
2022/01/27 10:41:21;;;;;;;;;42.00;34.75;;;;;8.00;71.59;102983.03;5057578;28;46058;-69
2022/01/27 10:43:46;;;;;;;;;48.75;41.50;;;;;7.96;71.83;102981.25;5057339;28;45808;-69
2022/01/27 10:46:26;;;;;;;;;53.00;42.75;;;;;7.93;72.11;102978.63;5058008;28;45800;-69
2022/01/27 10:49:01;;;;;;;;;52.00;39.25;;;;;7.95;71.78;102970.78;5057908;28;45420;-69
2022/01/27 10:51:33;;;;;;;;;48.00;39.00;;;;;7.93;71.72;102965.53;5056733;28;46507;-69
2022/01/27 10:56:29;;;;;;;;;45.75;34.75;;;;;7.89;71.33;102963.78;5057711;28;45400;-69
2022/01/27 10:58:57;;;;;;;;;56.25;41.25;;;;;7.83;71.73;102958.53;5056811;28;45520;-69
2022/01/27 11:01:28;;;;;;;;;39.00;32.00;;;;;7.85;71.58;102962.03;5043738;28;45582;-69
2022/01/27 11:03:56;;;;;;;;;50.25;37.75;;;;;7.79;71.28;102962.88;5057212;28;46186;-69
2022/01/27 11:06:26;;;;;;;;;44.25;35.50;;;;;7.72;71.62;102961.06;5056888;28;46932;-69
2022/01/27 11:08:54;;;;;;;;;45.75;32.25;;;;;7.67;71.61;102970.66;5057169;28;45553;-69
2022/01/27 11:11:22;;;;;;;;;48.25;38.00;;;;;7.64;71.52;102972.41;5056994;28;46412;-69
2022/01/27 11:13:49;;;;;;;;;47.25;34.25;;;;;7.57;71.49;102967.13;5057233;28;45367;-69
2022/01/27 11:16:17;;;;;;;;;50.00;40.00;;;;;7.54;72.22;102972.34;5057517;28;45546;-69
2022/01/27 11:18:45;;;;;;;;;51.75;37.50;;;;;7.52;71.68;102963.63;5055857;28;45526;-69
2022/01/27 11:21:23;;;;;;;;;45.00;36.75;;;;;7.50;71.77;102973.19;5056873;27;46782;-69
2022/01/27 11:24:15;;;;;;;;;44.25;37.75;;;;;7.54;72.59;102966.25;5056733;28;47856;-69
2022/01/27 11:26:40;;;;;;;;;56.75;39.00;;;;;7.56;72.21;102970.59;5056324;28;45500;-69
2022/01/27 11:29:08;;;;;;;;;55.00;40.00;;;;;7.55;71.78;102950.53;5057032;28;45515;-69
2022/01/27 11:31:40;;;;;;;;;51.25;37.75;;;;;7.57;71.94;102953.19;5057198;28;45552;-69
2022/01/27 11:34:07;;;;;;;;;46.50;33.75;;;;;7.51;72.12;102935.69;5040703;28;46019;-69
2022/01/27 11:36:34;;;;;;;;;55.00;39.25;;;;;7.59;72.45;102951.44;5055934;28;45363;-69
2022/01/27 11:39:01;;;;;;;;;56.50;38.75;;;;;7.62;72.17;102948.81;5056935;28;45624;-69
2022/01/27 11:41:49;;;;;;;;;59.00;40.25;;;;;7.72;72.11;102945.38;5057036;28;45462;-69
2022/01/27 11:44:21;;;;;;;;;47.00;33.25;;;;;7.80;72.34;102934.94;5055433;28;45530;-69
2022/01/27 11:47:09;;;;;;;;;57.00;37.50;;;;;7.89;71.98;102935.00;5055837;28;45734;-69
2022/01/27 11:50:22;;;;;;;;;54.50;38.75;;;;;7.96;72.26;102936.75;5056796;28;45311;-69
2022/01/27 11:52:52;;;;;;;;;53.50;37.25;;;;;8.00;72.32;102917.56;5048216;28;45695;-69
2022/01/27 11:55:23;;;;;;;;;36.75;29.75;;;;;8.05;71.79;102910.59;5056665;28;45407;-69
2022/01/27 11:57:48;;;;;;;;;48.25;34.50;;;;;8.10;71.82;102915.84;5056341;28;45408;-69